Misterton, United Kingdom
Current Conditions -  °F | °C
As of 10:50 PM on Saturday 20 Dec 2014 (Local Time) from EGCN Reporting Station
Overcast Overcast  
Wind Chill: 43°   Ceiling: 3600
Heat Index: 46°   Visibility: 6mi
Dew Point: 41°   Wind: 7mph
Humidity: 81%   Direction: 240°WSW
Pressure: 30.36"   Gusts: NA
Location:  53.45°N, 0.85°W
Report Text: EGCN 202250Z 24006KT 9999 OVC036 08/05 Q1028
Loading
Personal Weather Stations






























Interactive Weather Map New forecast layout! Learn more

10-Day Weather Forecast

Advertisements
Track Severe Weather on mobile